Terminal Aerodrome Forecast
Issued by NWS

Home | Current Version | Previous Version | Text Only | Print | Product List | Glossary On
Versions: 1 2 3 4 5 6 7 8 9 10 11 12 13 14 15 16 17 18 19 20 21 22 23 24 25 26 27 28 29 30 31
203
FTUS42 KCAE 270908 AAA
TAFCUB
TAF AMD
KCUB 270908Z 2709/2806 00000KT P6SM SCT150
      TEMPO 2710/2712 3SM BR BKN008
     FM271500 VRB03KT P6SM VCSH BKN035=

USA.gov is the U.S. government's official web portal to all federal, state and local government web resources and services.